sensor_id;sensor_type;location;lat;lon;timestamp;P1;durP1;ratioP1;P2;durP2;ratioP2
75614;SDS011;64199;48.578;-4.520;2023-04-03T00:01:36;0.55;;;0.55;;
75614;SDS011;64199;48.578;-4.520;2023-04-03T00:04:03;0.45;;;0.40;;
75614;SDS011;64199;48.578;-4.520;2023-04-03T00:06:30;1.35;;;0.50;;
75614;SDS011;64199;48.578;-4.520;2023-04-03T00:08:56;0.30;;;0.30;;
75614;SDS011;64199;48.578;-4.520;2023-04-03T00:11:22;0.30;;;0.30;;
75614;SDS011;64199;48.578;-4.520;2023-04-03T00:13:49;0.80;;;0.60;;
75614;SDS011;64199;48.578;-4.520;2023-04-03T00:16:15;2.17;;;0.47;;
75614;SDS011;64199;48.578;-4.520;2023-04-03T00:18:40;1.40;;;0.40;;
75614;SDS011;64199;48.578;-4.520;2023-04-03T00:21:07;0.73;;;0.32;;
75614;SDS011;64199;48.578;-4.520;2023-04-03T00:23:34;0.50;;;0.50;;
75614;SDS011;64199;48.578;-4.520;2023-04-03T00:26:00;0.50;;;0.50;;
75614;SDS011;64199;48.578;-4.520;2023-04-03T00:28:26;0.63;;;0.30;;
75614;SDS011;64199;48.578;-4.520;2023-04-03T00:30:52;0.57;;;0.43;;
75614;SDS011;64199;48.578;-4.520;2023-04-03T00:33:18;1.13;;;0.55;;
75614;SDS011;64199;48.578;-4.520;2023-04-03T00:35:46;0.40;;;0.40;;
75614;SDS011;64199;48.578;-4.520;2023-04-03T00:38:13;0.43;;;0.40;;
75614;SDS011;64199;48.578;-4.520;2023-04-03T00:40:42;0.30;;;0.30;;
75614;SDS011;64199;48.578;-4.520;2023-04-03T00:43:15;0.50;;;0.40;;
75614;SDS011;64199;48.578;-4.520;2023-04-03T00:45:49;0.65;;;0.43;;
75614;SDS011;64199;48.578;-4.520;2023-04-03T00:48:20;0.55;;;0.55;;
75614;SDS011;64199;48.578;-4.520;2023-04-03T00:50:50;0.73;;;0.50;;
75614;SDS011;64199;48.578;-4.520;2023-04-03T00:53:28;2.00;;;0.40;;
75614;SDS011;64199;48.578;-4.520;2023-04-03T00:56:02;1.58;;;0.60;;
75614;SDS011;64199;48.578;-4.520;2023-04-03T00:58:36;0.77;;;0.50;;
75614;SDS011;64199;48.578;-4.520;2023-04-03T01:01:06;0.40;;;0.40;;
75614;SDS011;64199;48.578;-4.520;2023-04-03T01:03:35;0.40;;;0.40;;
75614;SDS011;64199;48.578;-4.520;2023-04-03T01:06:01;0.40;;;0.40;;
75614;SDS011;64199;48.578;-4.520;2023-04-03T01:08:27;0.73;;;0.60;;
75614;SDS011;64199;48.578;-4.520;2023-04-03T01:10:54;0.63;;;0.50;;
75614;SDS011;64199;48.578;-4.520;2023-04-03T01:13:21;1.00;;;0.50;;
75614;SDS011;64199;48.578;-4.520;2023-04-03T01:15:52;0.57;;;0.35;;
75614;SDS011;64199;48.578;-4.520;2023-04-03T01:18:18;0.55;;;0.47;;
75614;SDS011;64199;48.578;-4.520;2023-04-03T01:26:24;0.30;;;0.30;;
75614;SDS011;64199;48.578;-4.520;2023-04-03T01:28:51;0.70;;;0.40;;
75614;SDS011;64199;48.578;-4.520;2023-04-03T01:34:00;0.45;;;0.45;;
75614;SDS011;64199;48.578;-4.520;2023-04-03T01:36:27;0.40;;;0.40;;
75614;SDS011;64199;48.578;-4.520;2023-04-03T01:38:55;0.35;;;0.35;;
75614;SDS011;64199;48.578;-4.520;2023-04-03T01:41:24;0.75;;;0.40;;
75614;SDS011;64199;48.578;-4.520;2023-04-03T01:43:51;0.50;;;0.50;;
75614;SDS011;64199;48.578;-4.520;2023-04-03T01:46:17;0.82;;;0.57;;
75614;SDS011;64199;48.578;-4.520;2023-04-03T01:48:44;0.70;;;0.50;;
75614;SDS011;64199;48.578;-4.520;2023-04-03T01:51:10;0.30;;;0.30;;
75614;SDS011;64199;48.578;-4.520;2023-04-03T01:53:36;0.60;;;0.40;;
75614;SDS011;64199;48.578;-4.520;2023-04-03T01:56:03;0.60;;;0.60;;
75614;SDS011;64199;48.578;-4.520;2023-04-03T01:58:29;0.47;;;0.47;;
75614;SDS011;64199;48.578;-4.520;2023-04-03T02:00:55;1.33;;;0.40;;
75614;SDS011;64199;48.578;-4.520;2023-04-03T02:03:20;0.38;;;0.30;;
75614;SDS011;64199;48.578;-4.520;2023-04-03T02:05:46;0.28;;;0.28;;
75614;SDS011;64199;48.578;-4.520;2023-04-03T02:08:12;0.20;;;0.20;;
75614;SDS011;64199;48.578;-4.520;2023-04-03T02:10:39;0.45;;;0.45;;
75614;SDS011;64199;48.578;-4.520;2023-04-03T02:13:04;0.45;;;0.30;;
75614;SDS011;64199;48.578;-4.520;2023-04-03T02:15:30;0.50;;;0.32;;
75614;SDS011;64199;48.578;-4.520;2023-04-03T02:17:56;0.73;;;0.32;;
75614;SDS011;64199;48.578;-4.520;2023-04-03T02:20:22;0.47;;;0.40;;
75614;SDS011;64199;48.578;-4.520;2023-04-03T02:22:48;0.20;;;0.20;;
75614;SDS011;64199;48.578;-4.520;2023-04-03T02:25:14;0.40;;;0.38;;
75614;SDS011;64199;48.578;-4.520;2023-04-03T02:27:40;0.20;;;0.20;;
75614;SDS011;64199;48.578;-4.520;2023-04-03T02:30:06;0.30;;;0.30;;
75614;SDS011;64199;48.578;-4.520;2023-04-03T02:32:32;0.50;;;0.50;;
75614;SDS011;64199;48.578;-4.520;2023-04-03T02:34:58;0.50;;;0.45;;
75614;SDS011;64199;48.578;-4.520;2023-04-03T02:37:24;0.25;;;0.25;;
75614;SDS011;64199;48.578;-4.520;2023-04-03T02:39:49;0.57;;;0.38;;
75614;SDS011;64199;48.578;-4.520;2023-04-03T02:42:17;0.60;;;0.30;;
75614;SDS011;64199;48.578;-4.520;2023-04-03T02:44:43;0.60;;;0.50;;
75614;SDS011;64199;48.578;-4.520;2023-04-03T02:47:09;0.50;;;0.50;;
75614;SDS011;64199;48.578;-4.520;2023-04-03T02:49:35;0.40;;;0.35;;
75614;SDS011;64199;48.578;-4.520;2023-04-03T02:52:01;0.70;;;0.60;;
75614;SDS011;64199;48.578;-4.520;2023-04-03T02:54:27;0.45;;;0.43;;
75614;SDS011;64199;48.578;-4.520;2023-04-03T02:56:55;1.02;;;0.50;;
75614;SDS011;64199;48.578;-4.520;2023-04-03T02:59:21;0.40;;;0.40;;
75614;SDS011;64199;48.578;-4.520;2023-04-03T03:01:47;1.33;;;0.40;;
75614;SDS011;64199;48.578;-4.520;2023-04-03T03:04:13;0.40;;;0.40;;
75614;SDS011;64199;48.578;-4.520;2023-04-03T03:06:39;0.50;;;0.50;;
75614;SDS011;64199;48.578;-4.520;2023-04-03T03:09:06;0.57;;;0.50;;
75614;SDS011;64199;48.578;-4.520;2023-04-03T03:11:32;0.47;;;0.47;;
75614;SDS011;64199;48.578;-4.520;2023-04-03T03:13:58;1.85;;;0.40;;
75614;SDS011;64199;48.578;-4.520;2023-04-03T03:16:23;0.45;;;0.45;;
75614;SDS011;64199;48.578;-4.520;2023-04-03T03:18:49;0.60;;;0.40;;
75614;SDS011;64199;48.578;-4.520;2023-04-03T03:21:15;0.40;;;0.40;;
75614;SDS011;64199;48.578;-4.520;2023-04-03T03:23:41;0.30;;;0.30;;
75614;SDS011;64199;48.578;-4.520;2023-04-03T03:26:08;0.40;;;0.40;;
75614;SDS011;64199;48.578;-4.520;2023-04-03T03:28:35;0.40;;;0.40;;
75614;SDS011;64199;48.578;-4.520;2023-04-03T03:31:03;0.47;;;0.47;;
75614;SDS011;64199;48.578;-4.520;2023-04-03T03:33:29;0.57;;;0.50;;
75614;SDS011;64199;48.578;-4.520;2023-04-03T03:35:56;0.43;;;0.40;;
75614;SDS011;64199;48.578;-4.520;2023-04-03T03:38:22;2.15;;;0.40;;
75614;SDS011;64199;48.578;-4.520;2023-04-03T03:40:49;0.60;;;0.60;;
75614;SDS011;64199;48.578;-4.520;2023-04-03T03:43:15;1.02;;;0.73;;
75614;SDS011;64199;48.578;-4.520;2023-04-03T03:45:42;0.55;;;0.40;;
75614;SDS011;64199;48.578;-4.520;2023-04-03T03:48:08;0.90;;;0.70;;
75614;SDS011;64199;48.578;-4.520;2023-04-03T03:50:34;1.20;;;0.50;;
75614;SDS011;64199;48.578;-4.520;2023-04-03T03:53:00;2.35;;;0.60;;
75614;SDS011;64199;48.578;-4.520;2023-04-03T03:55:26;0.60;;;0.60;;
75614;SDS011;64199;48.578;-4.520;2023-04-03T03:57:52;0.98;;;0.40;;
75614;SDS011;64199;48.578;-4.520;2023-04-03T04:00:18;0.60;;;0.40;;
75614;SDS011;64199;48.578;-4.520;2023-04-03T04:02:45;1.85;;;0.57;;
75614;SDS011;64199;48.578;-4.520;2023-04-03T04:05:11;0.80;;;0.70;;
75614;SDS011;64199;48.578;-4.520;2023-04-03T04:07:37;4.03;;;0.70;;
75614;SDS011;64199;48.578;-4.520;2023-04-03T04:10:03;1.90;;;0.60;;
75614;SDS011;64199;48.578;-4.520;2023-04-03T04:12:29;0.68;;;0.60;;
75614;SDS011;64199;48.578;-4.520;2023-04-03T04:14:55;0.63;;;0.60;;
75614;SDS011;64199;48.578;-4.520;2023-04-03T04:17:21;0.60;;;0.60;;
75614;SDS011;64199;48.578;-4.520;2023-04-03T04:19:47;0.88;;;0.50;;
75614;SDS011;64199;48.578;-4.520;2023-04-03T04:22:13;0.63;;;0.60;;
75614;SDS011;64199;48.578;-4.520;2023-04-03T04:24:39;0.40;;;0.40;;
75614;SDS011;64199;48.578;-4.520;2023-04-03T04:27:05;0.63;;;0.60;;
75614;SDS011;64199;48.578;-4.520;2023-04-03T04:29:30;0.63;;;0.60;;
75614;SDS011;64199;48.578;-4.520;2023-04-03T04:32:01;0.85;;;0.75;;
75614;SDS011;64199;48.578;-4.520;2023-04-03T04:34:27;0.52;;;0.52;;
75614;SDS011;64199;48.578;-4.520;2023-04-03T04:36:53;1.10;;;0.60;;
75614;SDS011;64199;48.578;-4.520;2023-04-03T04:39:19;3.25;;;0.70;;
75614;SDS011;64199;48.578;-4.520;2023-04-03T04:41:45;0.80;;;0.57;;
75614;SDS011;64199;48.578;-4.520;2023-04-03T04:44:11;2.05;;;0.70;;
75614;SDS011;64199;48.578;-4.520;2023-04-03T04:46:37;0.85;;;0.60;;
75614;SDS011;64199;48.578;-4.520;2023-04-03T04:49:03;0.63;;;0.60;;
75614;SDS011;64199;48.578;-4.520;2023-04-03T04:51:28;0.88;;;0.70;;
75614;SDS011;64199;48.578;-4.520;2023-04-03T04:53:54;1.58;;;0.77;;
75614;SDS011;64199;48.578;-4.520;2023-04-03T04:56:20;0.68;;;0.60;;
75614;SDS011;64199;48.578;-4.520;2023-04-03T04:58:46;0.75;;;0.60;;
75614;SDS011;64199;48.578;-4.520;2023-04-03T05:01:12;1.75;;;0.60;;
75614;SDS011;64199;48.578;-4.520;2023-04-03T05:03:38;0.50;;;0.50;;
75614;SDS011;64199;48.578;-4.520;2023-04-03T05:06:04;1.40;;;0.60;;
75614;SDS011;64199;48.578;-4.520;2023-04-03T05:08:31;0.40;;;0.40;;
75614;SDS011;64199;48.578;-4.520;2023-04-03T05:10:57;0.80;;;0.60;;
75614;SDS011;64199;48.578;-4.520;2023-04-03T05:13:23;0.75;;;0.60;;
75614;SDS011;64199;48.578;-4.520;2023-04-03T05:15:48;2.17;;;0.65;;
75614;SDS011;64199;48.578;-4.520;2023-04-03T05:18:14;0.60;;;0.60;;
75614;SDS011;64199;48.578;-4.520;2023-04-03T05:20:40;1.17;;;0.50;;
75614;SDS011;64199;48.578;-4.520;2023-04-03T05:23:06;0.40;;;0.40;;
75614;SDS011;64199;48.578;-4.520;2023-04-03T05:25:32;1.27;;;0.60;;
75614;SDS011;64199;48.578;-4.520;2023-04-03T05:27:58;0.70;;;0.55;;
75614;SDS011;64199;48.578;-4.520;2023-04-03T05:30:23;0.60;;;0.50;;
75614;SDS011;64199;48.578;-4.520;2023-04-03T05:32:49;0.95;;;0.60;;
75614;SDS011;64199;48.578;-4.520;2023-04-03T05:35:15;1.10;;;0.63;;
75614;SDS011;64199;48.578;-4.520;2023-04-03T05:37:41;1.48;;;0.55;;
75614;SDS011;64199;48.578;-4.520;2023-04-03T05:40:07;1.17;;;0.50;;
75614;SDS011;64199;48.578;-4.520;2023-04-03T05:42:34;0.60;;;0.60;;
75614;SDS011;64199;48.578;-4.520;2023-04-03T05:44:59;0.68;;;0.50;;
75614;SDS011;64199;48.578;-4.520;2023-04-03T05:47:25;0.57;;;0.50;;
75614;SDS011;64199;48.578;-4.520;2023-04-03T05:49:51;0.85;;;0.63;;
75614;SDS011;64199;48.578;-4.520;2023-04-03T05:52:21;0.57;;;0.50;;
75614;SDS011;64199;48.578;-4.520;2023-04-03T05:54:53;0.73;;;0.60;;
75614;SDS011;64199;48.578;-4.520;2023-04-03T05:57:19;1.98;;;0.60;;
75614;SDS011;64199;48.578;-4.520;2023-04-03T05:59:45;1.10;;;0.60;;
75614;SDS011;64199;48.578;-4.520;2023-04-03T06:02:13;2.58;;;0.60;;
75614;SDS011;64199;48.578;-4.520;2023-04-03T06:04:49;0.40;;;0.40;;
75614;SDS011;64199;48.578;-4.520;2023-04-03T06:07:16;0.50;;;0.50;;
75614;SDS011;64199;48.578;-4.520;2023-04-03T06:09:46;0.40;;;0.40;;
75614;SDS011;64199;48.578;-4.520;2023-04-03T06:12:13;1.83;;;0.60;;
75614;SDS011;64199;48.578;-4.520;2023-04-03T06:14:40;0.77;;;0.60;;
75614;SDS011;64199;48.578;-4.520;2023-04-03T06:17:06;0.63;;;0.50;;
75614;SDS011;64199;48.578;-4.520;2023-04-03T06:19:33;0.47;;;0.40;;
75614;SDS011;64199;48.578;-4.520;2023-04-03T06:21:59;0.70;;;0.70;;
75614;SDS011;64199;48.578;-4.520;2023-04-03T06:24:25;1.05;;;0.50;;
75614;SDS011;64199;48.578;-4.520;2023-04-03T06:26:51;0.60;;;0.60;;
75614;SDS011;64199;48.578;-4.520;2023-04-03T06:29:18;0.90;;;0.45;;
75614;SDS011;64199;48.578;-4.520;2023-04-03T06:31:45;0.30;;;0.30;;
75614;SDS011;64199;48.578;-4.520;2023-04-03T06:34:12;0.50;;;0.50;;
75614;SDS011;64199;48.578;-4.520;2023-04-03T06:36:38;0.85;;;0.50;;
75614;SDS011;64199;48.578;-4.520;2023-04-03T06:39:04;1.27;;;0.40;;
75614;SDS011;64199;48.578;-4.520;2023-04-03T06:41:30;1.20;;;0.50;;
75614;SDS011;64199;48.578;-4.520;2023-04-03T06:43:57;0.98;;;0.60;;
75614;SDS011;64199;48.578;-4.520;2023-04-03T06:46:23;0.50;;;0.50;;
75614;SDS011;64199;48.578;-4.520;2023-04-03T06:48:51;0.55;;;0.55;;
75614;SDS011;64199;48.578;-4.520;2023-04-03T06:51:19;0.73;;;0.60;;
75614;SDS011;64199;48.578;-4.520;2023-04-03T06:53:50;0.32;;;0.30;;
75614;SDS011;64199;48.578;-4.520;2023-04-03T06:56:17;2.45;;;0.70;;
75614;SDS011;64199;48.578;-4.520;2023-04-03T06:58:44;0.68;;;0.40;;
75614;SDS011;64199;48.578;-4.520;2023-04-03T07:01:11;0.30;;;0.30;;
75614;SDS011;64199;48.578;-4.520;2023-04-03T07:03:39;0.75;;;0.60;;
75614;SDS011;64199;48.578;-4.520;2023-04-03T07:06:06;1.05;;;0.45;;
75614;SDS011;64199;48.578;-4.520;2023-04-03T07:08:33;1.67;;;0.65;;
75614;SDS011;64199;48.578;-4.520;2023-04-03T07:10:59;0.47;;;0.40;;
75614;SDS011;64199;48.578;-4.520;2023-04-03T07:13:25;0.30;;;0.30;;
75614;SDS011;64199;48.578;-4.520;2023-04-03T07:15:52;0.82;;;0.40;;
75614;SDS011;64199;48.578;-4.520;2023-04-03T07:18:18;0.55;;;0.40;;
75614;SDS011;64199;48.578;-4.520;2023-04-03T07:20:44;0.35;;;0.30;;
75614;SDS011;64199;48.578;-4.520;2023-04-03T07:23:10;0.52;;;0.40;;
75614;SDS011;64199;48.578;-4.520;2023-04-03T07:25:36;0.40;;;0.40;;
75614;SDS011;64199;48.578;-4.520;2023-04-03T07:28:07;0.30;;;0.30;;
75614;SDS011;64199;48.578;-4.520;2023-04-03T07:30:33;0.30;;;0.30;;
75614;SDS011;64199;48.578;-4.520;2023-04-03T07:33:00;0.40;;;0.40;;
75614;SDS011;64199;48.578;-4.520;2023-04-03T07:35:25;0.80;;;0.35;;
75614;SDS011;64199;48.578;-4.520;2023-04-03T07:37:52;0.30;;;0.30;;
75614;SDS011;64199;48.578;-4.520;2023-04-03T07:40:18;1.27;;;0.30;;
75614;SDS011;64199;48.578;-4.520;2023-04-03T07:42:44;0.52;;;0.38;;
75614;SDS011;64199;48.578;-4.520;2023-04-03T07:45:10;0.32;;;0.30;;
75614;SDS011;64199;48.578;-4.520;2023-04-03T07:47:36;0.55;;;0.32;;
75614;SDS011;64199;48.578;-4.520;2023-04-03T07:50:02;0.35;;;0.30;;
75614;SDS011;64199;48.578;-4.520;2023-04-03T07:52:28;0.30;;;0.30;;
75614;SDS011;64199;48.578;-4.520;2023-04-03T07:54:54;1.00;;;0.40;;
75614;SDS011;64199;48.578;-4.520;2023-04-03T07:57:20;1.27;;;0.30;;
75614;SDS011;64199;48.578;-4.520;2023-04-03T07:59:45;0.20;;;0.20;;
75614;SDS011;64199;48.578;-4.520;2023-04-03T08:02:11;0.30;;;0.30;;
75614;SDS011;64199;48.578;-4.520;2023-04-03T08:04:37;0.30;;;0.30;;
75614;SDS011;64199;48.578;-4.520;2023-04-03T08:07:03;0.30;;;0.30;;
75614;SDS011;64199;48.578;-4.520;2023-04-03T08:09:29;0.40;;;0.40;;
75614;SDS011;64199;48.578;-4.520;2023-04-03T08:11:56;1.13;;;0.30;;
75614;SDS011;64199;48.578;-4.520;2023-04-03T08:14:23;0.30;;;0.30;;
75614;SDS011;64199;48.578;-4.520;2023-04-03T08:16:49;0.60;;;0.30;;
75614;SDS011;64199;48.578;-4.520;2023-04-03T08:19:16;0.30;;;0.30;;
75614;SDS011;64199;48.578;-4.520;2023-04-03T08:21:43;0.40;;;0.40;;
75614;SDS011;64199;48.578;-4.520;2023-04-03T08:24:10;0.30;;;0.20;;
75614;SDS011;64199;48.578;-4.520;2023-04-03T08:26:36;1.73;;;0.30;;
75614;SDS011;64199;48.578;-4.520;2023-04-03T08:29:02;0.28;;;0.20;;
75614;SDS011;64199;48.578;-4.520;2023-04-03T08:31:28;0.63;;;0.30;;
75614;SDS011;64199;48.578;-4.520;2023-04-03T08:33:56;0.40;;;0.25;;
75614;SDS011;64199;48.578;-4.520;2023-04-03T08:36:26;0.88;;;0.30;;
75614;SDS011;64199;48.578;-4.520;2023-04-03T08:38:54;1.95;;;0.30;;
75614;SDS011;64199;48.578;-4.520;2023-04-03T08:44:02;0.63;;;0.30;;
75614;SDS011;64199;48.578;-4.520;2023-04-03T08:46:49;0.98;;;0.52;;
75614;SDS011;64199;48.578;-4.520;2023-04-03T08:57:41;1.15;;;0.50;;
75614;SDS011;64199;48.578;-4.520;2023-04-03T09:00:19;0.50;;;0.50;;
75614;SDS011;64199;48.578;-4.520;2023-04-03T09:02:48;1.00;;;0.63;;
75614;SDS011;64199;48.578;-4.520;2023-04-03T09:05:16;4.65;;;0.80;;
75614;SDS011;64199;48.578;-4.520;2023-04-03T09:07:45;0.40;;;0.32;;
75614;SDS011;64199;48.578;-4.520;2023-04-03T09:10:23;6.03;;;0.32;;
75614;SDS011;64199;48.578;-4.520;2023-04-03T09:13:04;2.20;;;0.55;;
75614;SDS011;64199;48.578;-4.520;2023-04-03T09:15:51;0.40;;;0.40;;
75614;SDS011;64199;48.578;-4.520;2023-04-03T09:18:39;1.23;;;0.60;;
75614;SDS011;64199;48.578;-4.520;2023-04-03T09:23:50;1.85;;;0.60;;
75614;SDS011;64199;48.578;-4.520;2023-04-03T09:28:51;0.73;;;0.50;;
75614;SDS011;64199;48.578;-4.520;2023-04-03T09:31:22;2.72;;;0.60;;
75614;SDS011;64199;48.578;-4.520;2023-04-03T09:33:52;1.60;;;0.50;;
75614;SDS011;64199;48.578;-4.520;2023-04-03T09:36:41;1.83;;;0.55;;
75614;SDS011;64199;48.578;-4.520;2023-04-03T09:39:14;1.75;;;0.50;;
75614;SDS011;64199;48.578;-4.520;2023-04-03T09:41:58;0.85;;;0.60;;
75614;SDS011;64199;48.578;-4.520;2023-04-03T09:44:33;1.55;;;0.65;;
75614;SDS011;64199;48.578;-4.520;2023-04-03T09:47:23;2.38;;;0.35;;
75614;SDS011;64199;48.578;-4.520;2023-04-03T09:50:08;2.35;;;0.47;;
75614;SDS011;64199;48.578;-4.520;2023-04-03T09:52:41;0.90;;;0.50;;
75614;SDS011;64199;48.578;-4.520;2023-04-03T09:55:14;2.45;;;0.57;;
75614;SDS011;64199;48.578;-4.520;2023-04-03T09:57:46;4.78;;;0.60;;
75614;SDS011;64199;48.578;-4.520;2023-04-03T10:00:36;1.95;;;0.82;;
75614;SDS011;64199;48.578;-4.520;2023-04-03T10:03:02;0.90;;;0.45;;
75614;SDS011;64199;48.578;-4.520;2023-04-03T10:05:33;1.95;;;0.70;;
75614;SDS011;64199;48.578;-4.520;2023-04-03T10:08:19;1.88;;;0.60;;
75614;SDS011;64199;48.578;-4.520;2023-04-03T10:11:05;2.17;;;0.70;;
75614;SDS011;64199;48.578;-4.520;2023-04-03T10:13:59;2.50;;;0.77;;
75614;SDS011;64199;48.578;-4.520;2023-04-03T10:19:32;1.25;;;0.70;;
75614;SDS011;64199;48.578;-4.520;2023-04-03T10:24:38;0.40;;;0.40;;
75614;SDS011;64199;48.578;-4.520;2023-04-03T10:27:11;1.30;;;0.73;;
75614;SDS011;64199;48.578;-4.520;2023-04-03T10:32:43;1.75;;;0.55;;
75614;SDS011;64199;48.578;-4.520;2023-04-03T10:38:01;2.53;;;0.70;;
75614;SDS011;64199;48.578;-4.520;2023-04-03T10:40:46;0.85;;;0.63;;
75614;SDS011;64199;48.578;-4.520;2023-04-03T10:51:13;1.55;;;0.82;;
75614;SDS011;64199;48.578;-4.520;2023-04-03T10:53:53;1.92;;;0.70;;
75614;SDS011;64199;48.578;-4.520;2023-04-03T10:56:30;2.00;;;0.80;;
75614;SDS011;64199;48.578;-4.520;2023-04-03T10:59:23;2.25;;;0.63;;
75614;SDS011;64199;48.578;-4.520;2023-04-03T11:04:37;1.50;;;0.52;;
75614;SDS011;64199;48.578;-4.520;2023-04-03T11:07:40;1.27;;;0.60;;
75614;SDS011;64199;48.578;-4.520;2023-04-03T11:10:03;1.55;;;0.52;;
75614;SDS011;64199;48.578;-4.520;2023-04-03T11:12:49;0.70;;;0.57;;
75614;SDS011;64199;48.578;-4.520;2023-04-03T11:15:21;1.88;;;0.77;;
75614;SDS011;64199;48.578;-4.520;2023-04-03T11:17:51;1.88;;;0.73;;
75614;SDS011;64199;48.578;-4.520;2023-04-03T11:23:03;1.50;;;0.73;;
75614;SDS011;64199;48.578;-4.520;2023-04-03T11:25:42;1.05;;;0.80;;
75614;SDS011;64199;48.578;-4.520;2023-04-03T11:30:40;0.75;;;0.50;;
75614;SDS011;64199;48.578;-4.520;2023-04-03T11:35:48;4.95;;;1.35;;
75614;SDS011;64199;48.578;-4.520;2023-04-03T11:38:22;1.17;;;0.70;;
75614;SDS011;64199;48.578;-4.520;2023-04-03T11:41:11;0.73;;;0.68;;
75614;SDS011;64199;48.578;-4.520;2023-04-03T11:43:42;1.20;;;0.80;;
75614;SDS011;64199;48.578;-4.520;2023-04-03T11:46:48;1.30;;;0.55;;
75614;SDS011;64199;48.578;-4.520;2023-04-03T12:13:42;0.95;;;0.65;;
75614;SDS011;64199;48.578;-4.520;2023-04-03T12:24:28;0.90;;;0.75;;
75614;SDS011;64199;48.578;-4.520;2023-04-03T12:45:23;1.23;;;0.80;;
75614;SDS011;64199;48.578;-4.520;2023-04-03T12:47:54;1.38;;;0.63;;
75614;SDS011;64199;48.578;-4.520;2023-04-03T12:50:25;2.55;;;0.80;;
75614;SDS011;64199;48.578;-4.520;2023-04-03T12:55:26;1.52;;;0.80;;
75614;SDS011;64199;48.578;-4.520;2023-04-03T12:57:53;1.73;;;0.80;;
75614;SDS011;64199;48.578;-4.520;2023-04-03T13:00:21;1.55;;;0.80;;
75614;SDS011;64199;48.578;-4.520;2023-04-03T13:02:47;1.00;;;0.50;;
75614;SDS011;64199;48.578;-4.520;2023-04-03T13:05:15;0.77;;;0.70;;
75614;SDS011;64199;48.578;-4.520;2023-04-03T13:07:44;1.08;;;0.80;;
75614;SDS011;64199;48.578;-4.520;2023-04-03T13:10:23;1.15;;;0.75;;
75614;SDS011;64199;48.578;-4.520;2023-04-03T13:12:54;2.17;;;1.08;;
75614;SDS011;64199;48.578;-4.520;2023-04-03T13:15:40;0.93;;;0.70;;
75614;SDS011;64199;48.578;-4.520;2023-04-03T13:21:15;1.95;;;0.82;;
75614;SDS011;64199;48.578;-4.520;2023-04-03T13:23:45;0.93;;;0.65;;
75614;SDS011;64199;48.578;-4.520;2023-04-03T13:26:14;1.60;;;0.75;;
75614;SDS011;64199;48.578;-4.520;2023-04-03T13:28:42;1.55;;;0.77;;
75614;SDS011;64199;48.578;-4.520;2023-04-03T13:34:02;1.02;;;0.88;;
75614;SDS011;64199;48.578;-4.520;2023-04-03T13:36:36;2.83;;;1.20;;
75614;SDS011;64199;48.578;-4.520;2023-04-03T13:42:02;0.95;;;0.88;;
75614;SDS011;64199;48.578;-4.520;2023-04-03T13:44:39;1.63;;;0.90;;
75614;SDS011;64199;48.578;-4.520;2023-04-03T13:50:00;1.20;;;1.00;;
75614;SDS011;64199;48.578;-4.520;2023-04-03T13:52:42;1.13;;;1.00;;
75614;SDS011;64199;48.578;-4.520;2023-04-03T13:55:33;2.40;;;1.00;;
75614;SDS011;64199;48.578;-4.520;2023-04-03T13:58:02;1.70;;;0.90;;
75614;SDS011;64199;48.578;-4.520;2023-04-03T14:00:50;2.08;;;1.10;;
75614;SDS011;64199;48.578;-4.520;2023-04-03T14:05:59;1.73;;;0.98;;
75614;SDS011;64199;48.578;-4.520;2023-04-03T14:08:26;1.75;;;0.98;;
75614;SDS011;64199;48.578;-4.520;2023-04-03T14:10:52;2.80;;;0.95;;
75614;SDS011;64199;48.578;-4.520;2023-04-03T14:13:19;1.77;;;1.15;;
75614;SDS011;64199;48.578;-4.520;2023-04-03T14:15:46;2.13;;;1.10;;
75614;SDS011;64199;48.578;-4.520;2023-04-03T14:18:15;1.20;;;1.07;;
75614;SDS011;64199;48.578;-4.520;2023-04-03T14:20:43;1.13;;;0.90;;
75614;SDS011;64199;48.578;-4.520;2023-04-03T14:23:09;2.08;;;1.23;;
75614;SDS011;64199;48.578;-4.520;2023-04-03T14:25:35;1.70;;;1.15;;
75614;SDS011;64199;48.578;-4.520;2023-04-03T14:28:06;2.03;;;1.58;;
75614;SDS011;64199;48.578;-4.520;2023-04-03T14:30:44;2.33;;;1.25;;
75614;SDS011;64199;48.578;-4.520;2023-04-03T14:33:15;2.13;;;1.50;;
75614;SDS011;64199;48.578;-4.520;2023-04-03T14:35:43;2.50;;;1.27;;
75614;SDS011;64199;48.578;-4.520;2023-04-03T14:38:22;2.97;;;1.40;;
75614;SDS011;64199;48.578;-4.520;2023-04-03T14:40:54;2.75;;;1.00;;
75614;SDS011;64199;48.578;-4.520;2023-04-03T14:43:20;1.63;;;1.40;;
75614;SDS011;64199;48.578;-4.520;2023-04-03T14:45:47;1.45;;;1.30;;
75614;SDS011;64199;48.578;-4.520;2023-04-03T14:48:22;1.70;;;1.30;;
75614;SDS011;64199;48.578;-4.520;2023-04-03T14:50:51;2.05;;;1.52;;
75614;SDS011;64199;48.578;-4.520;2023-04-03T14:53:18;2.25;;;1.48;;
75614;SDS011;64199;48.578;-4.520;2023-04-03T14:55:47;3.55;;;1.60;;
75614;SDS011;64199;48.578;-4.520;2023-04-03T14:58:19;1.70;;;1.38;;
75614;SDS011;64199;48.578;-4.520;2023-04-03T15:00:46;2.38;;;1.70;;
75614;SDS011;64199;48.578;-4.520;2023-04-03T15:03:17;2.47;;;1.38;;
75614;SDS011;64199;48.578;-4.520;2023-04-03T15:05:46;1.48;;;1.38;;
75614;SDS011;64199;48.578;-4.520;2023-04-03T15:08:18;3.55;;;1.48;;
75614;SDS011;64199;48.578;-4.520;2023-04-03T15:10:49;2.50;;;1.40;;
75614;SDS011;64199;48.578;-4.520;2023-04-03T15:13:17;2.10;;;1.75;;
75614;SDS011;64199;48.578;-4.520;2023-04-03T15:15:44;1.55;;;1.40;;
75614;SDS011;64199;48.578;-4.520;2023-04-03T15:18:18;1.60;;;1.50;;
75614;SDS011;64199;48.578;-4.520;2023-04-03T15:20:47;2.67;;;1.50;;
75614;SDS011;64199;48.578;-4.520;2023-04-03T15:23:14;2.60;;;1.65;;
75614;SDS011;64199;48.578;-4.520;2023-04-03T15:25:41;1.52;;;1.42;;
75614;SDS011;64199;48.578;-4.520;2023-04-03T15:28:13;2.80;;;1.70;;
75614;SDS011;64199;48.578;-4.520;2023-04-03T15:30:46;3.38;;;1.95;;
75614;SDS011;64199;48.578;-4.520;2023-04-03T15:33:12;2.08;;;1.88;;
75614;SDS011;64199;48.578;-4.520;2023-04-03T15:35:38;2.55;;;1.63;;
75614;SDS011;64199;48.578;-4.520;2023-04-03T15:38:04;2.67;;;1.65;;
75614;SDS011;64199;48.578;-4.520;2023-04-03T15:40:30;1.60;;;1.50;;
75614;SDS011;64199;48.578;-4.520;2023-04-03T15:42:55;1.92;;;1.67;;
75614;SDS011;64199;48.578;-4.520;2023-04-03T15:45:21;3.20;;;1.90;;
75614;SDS011;64199;48.578;-4.520;2023-04-03T15:47:47;2.08;;;1.80;;
75614;SDS011;64199;48.578;-4.520;2023-04-03T15:50:13;3.55;;;1.95;;
75614;SDS011;64199;48.578;-4.520;2023-04-03T15:52:39;2.55;;;1.88;;
75614;SDS011;64199;48.578;-4.520;2023-04-03T15:55:05;2.03;;;1.80;;
75614;SDS011;64199;48.578;-4.520;2023-04-03T15:57:31;2.92;;;2.15;;
75614;SDS011;64199;48.578;-4.520;2023-04-03T15:59:57;2.72;;;1.73;;
75614;SDS011;64199;48.578;-4.520;2023-04-03T16:02:23;2.20;;;2.00;;
75614;SDS011;64199;48.578;-4.520;2023-04-03T16:04:53;2.20;;;1.58;;
75614;SDS011;64199;48.578;-4.520;2023-04-03T16:07:19;2.65;;;1.95;;
75614;SDS011;64199;48.578;-4.520;2023-04-03T16:09:45;2.58;;;1.90;;
75614;SDS011;64199;48.578;-4.520;2023-04-03T16:12:11;3.92;;;1.90;;
75614;SDS011;64199;48.578;-4.520;2023-04-03T16:14:37;2.35;;;1.80;;
75614;SDS011;64199;48.578;-4.520;2023-04-03T16:17:03;3.53;;;1.80;;
75614;SDS011;64199;48.578;-4.520;2023-04-03T16:19:29;2.35;;;1.90;;
75614;SDS011;64199;48.578;-4.520;2023-04-03T16:21:55;3.08;;;1.95;;
75614;SDS011;64199;48.578;-4.520;2023-04-03T16:24:21;4.60;;;2.25;;
75614;SDS011;64199;48.578;-4.520;2023-04-03T16:26:48;3.15;;;1.90;;
75614;SDS011;64199;48.578;-4.520;2023-04-03T16:29:14;2.47;;;2.25;;
75614;SDS011;64199;48.578;-4.520;2023-04-03T16:31:39;2.25;;;1.80;;
75614;SDS011;64199;48.578;-4.520;2023-04-03T16:34:05;2.90;;;2.33;;
75614;SDS011;64199;48.578;-4.520;2023-04-03T16:36:32;3.72;;;2.22;;
75614;SDS011;64199;48.578;-4.520;2023-04-03T16:38:57;3.80;;;2.00;;
75614;SDS011;64199;48.578;-4.520;2023-04-03T16:41:23;2.50;;;1.88;;
75614;SDS011;64199;48.578;-4.520;2023-04-03T16:43:50;2.72;;;2.10;;
75614;SDS011;64199;48.578;-4.520;2023-04-03T16:46:16;2.75;;;2.15;;